KMSO/MSO METAR and TAF weather

Enter ICAO airport designator
Station Type Date Time Source
KMSO METAR 2021/03/08 01:53 UTC NOAA

KMSO 080153Z 28007KT 10SM OVC080 04/M01 A3009 RMK AO2 SLP215 T00391006


Station Type Date Time Source
KMSO Decoded METAR 2021/03/08 01:53 UTC NOAA

MISSOULA INTERNATIONAL AIRPORT , MT, United States (KMSO) 46-55N 114-06W 975M
Mar 07, 2021 - 08:53 PM EST / 2021.03.08 0153 UTC
Wind: from the W (280 degrees) at 8 MPH (7 KT):0
Visibility: 10 mile(s):0
Sky conditions: overcast
Temperature: 39.0 F (3.9 C)
Dew Point: 30.9 F (-0.6 C)
Relative Humidity: 72%
Pressure (altimeter): 30.09 in. Hg (1018 hPa)
ob: KMSO 080153Z 28007KT 10SM OVC080 04/M01 A3009 RMK AO2 SLP215 T00391006
cycle: 2

Station Type Date Time Source
KMSO TAF 2021/03/07 18:36 UTC NOAA

TAF KMSO 071732Z 0718/0818 12005KT P6SM SCT060 BKN120
FM072300 29007KT P6SM VCSH BKN050 OVC070
FM080600 31004KT P6SM OVC070
FM081400 36005KT 6SM -SHSN BKN035 OVC050

Example: see airport list